createdAt,value
2023-04-19T00:00:14.515Z,10.37
2023-04-19T00:02:42.894Z,10.73
2023-04-19T00:05:12.126Z,9.50
2023-04-19T00:07:41.197Z,9.80
2023-04-19T00:10:09.147Z,9.70
2023-04-19T00:12:36.339Z,10.20
2023-04-19T00:15:03.419Z,10.13
2023-04-19T00:17:30.492Z,8.97
2023-04-19T00:19:57.960Z,10.97
2023-04-19T00:22:24.942Z,9.27
2023-04-19T00:24:52.245Z,10.63
2023-04-19T00:27:19.508Z,11.07
2023-04-19T00:29:46.338Z,10.87
2023-04-19T00:32:13.300Z,10.27
2023-04-19T00:34:40.165Z,10.73
2023-04-19T00:37:08.946Z,11.40
2023-04-19T00:39:36.237Z,9.80
2023-04-19T00:42:03.470Z,11.70
2023-04-19T00:44:30.758Z,10.03
2023-04-19T00:46:58.056Z,9.40
2023-04-19T00:49:25.999Z,11.17
2023-04-19T00:51:54.291Z,10.60
2023-04-19T00:54:21.791Z,12.80
2023-04-19T00:56:48.799Z,11.70
2023-04-19T00:59:18.319Z,10.20
2023-04-19T01:01:45.810Z,11.23
2023-04-19T01:04:13.055Z,10.30
2023-04-19T01:06:42.345Z,10.20
2023-04-19T01:09:09.359Z,10.50
2023-04-19T01:11:36.207Z,11.40
2023-04-19T01:14:03.195Z,12.40
2023-04-19T01:16:30.482Z,11.97
2023-04-19T01:18:57.410Z,10.80
2023-04-19T01:21:24.671Z,10.53
2023-04-19T01:23:52.196Z,11.50
2023-04-19T01:26:21.267Z,11.77
2023-04-19T01:28:48.118Z,11.10
2023-04-19T01:31:15.137Z,10.63
2023-04-19T01:33:42.119Z,11.50
2023-04-19T01:36:09.053Z,11.00
2023-04-19T01:38:36.143Z,10.80
2023-04-19T01:41:03.104Z,11.33
2023-04-19T01:43:30.168Z,10.07
2023-04-19T01:45:57.037Z,10.03
2023-04-19T01:48:23.888Z,13.67
2023-04-19T01:50:50.736Z,11.93
2023-04-19T01:53:17.744Z,11.00
2023-04-19T01:55:44.698Z,11.97
2023-04-19T01:58:11.573Z,11.30
2023-04-19T02:00:38.604Z,12.47
2023-04-19T02:03:05.930Z,13.00
2023-04-19T02:05:32.919Z,11.83
2023-04-19T02:08:01.278Z,12.80
2023-04-19T02:10:28.296Z,11.50
2023-04-19T02:12:55.214Z,12.43
2023-04-19T02:15:22.287Z,11.90
2023-04-19T02:17:49.408Z,12.33
2023-04-19T02:20:16.510Z,12.80
2023-04-19T02:22:43.905Z,12.60
2023-04-19T02:25:11.018Z,13.63
2023-04-19T02:27:37.888Z,12.27
2023-04-19T02:30:05.850Z,12.60
2023-04-19T02:32:33.274Z,11.30
2023-04-19T02:35:00.258Z,13.67
2023-04-19T02:37:27.253Z,11.37
2023-04-19T02:39:54.160Z,12.50
2023-04-19T02:42:21.002Z,11.90
2023-04-19T02:44:47.879Z,10.70
2023-04-19T02:47:14.776Z,12.17
2023-04-19T02:49:42.565Z,11.77
2023-04-19T02:52:09.496Z,12.10
2023-04-19T02:54:36.350Z,12.80
2023-04-19T02:57:03.333Z,13.80
2023-04-19T02:59:30.463Z,13.53
2023-04-19T03:01:57.361Z,12.73
2023-04-19T03:04:24.490Z,12.73
2023-04-19T03:06:52.666Z,11.47
2023-04-19T03:09:19.570Z,12.37
2023-04-19T03:11:46.484Z,13.20
2023-04-19T03:14:13.506Z,12.37
2023-04-19T03:16:40.826Z,12.93
2023-04-19T03:19:08.180Z,12.03
2023-04-19T03:21:35.175Z,10.87
2023-04-19T03:24:02.482Z,11.93
2023-04-19T03:26:29.397Z,11.50
2023-04-19T03:28:56.246Z,12.40
2023-04-19T03:31:23.280Z,11.10
2023-04-19T03:33:50.776Z,11.93
2023-04-19T03:36:17.644Z,11.70
2023-04-19T03:38:44.573Z,11.07
2023-04-19T03:41:26.888Z,11.17
2023-04-19T03:43:53.899Z,12.13
2023-04-19T03:46:21.247Z,11.50
2023-04-19T03:48:48.220Z,11.07
2023-04-19T03:51:16.194Z,11.10
2023-04-19T03:53:43.643Z,11.10
2023-04-19T03:56:10.509Z,10.63
2023-04-19T03:58:37.466Z,10.57
2023-04-19T04:01:05.298Z,11.57
2023-04-19T04:03:32.870Z,11.37
2023-04-19T04:06:00.492Z,11.67
2023-04-19T04:08:29.908Z,11.27
2023-04-19T04:10:56.858Z,10.20
2023-04-19T04:13:23.847Z,11.20
2023-04-19T04:15:50.813Z,12.17
2023-04-19T04:18:17.935Z,11.30
2023-04-19T04:20:45.138Z,11.37
2023-04-19T04:23:12.230Z,11.70
2023-04-19T04:25:39.136Z,11.70
2023-04-19T04:28:06.754Z,11.60
2023-04-19T04:30:34.242Z,11.73
2023-04-19T04:33:01.279Z,10.27
2023-04-19T04:35:29.914Z,11.40
2023-04-19T04:37:56.953Z,11.97
2023-04-19T04:40:23.955Z,11.70
2023-04-19T04:42:52.837Z,12.33
2023-04-19T04:45:20.051Z,13.03
2023-04-19T04:47:47.210Z,12.27
2023-04-19T04:50:14.305Z,11.37
2023-04-19T04:52:41.361Z,11.23
2023-04-19T04:55:09.345Z,11.90
2023-04-19T04:57:36.249Z,11.63
2023-04-19T05:00:06.488Z,12.93
2023-04-19T05:02:33.454Z,13.07
2023-04-19T05:05:00.508Z,12.43
2023-04-19T05:07:27.394Z,12.47
2023-04-19T05:09:54.277Z,11.97
2023-04-19T05:12:21.264Z,12.90
2023-04-19T05:14:48.204Z,12.10
2023-04-19T05:17:15.196Z,11.67
2023-04-19T05:19:42.035Z,12.47
2023-04-19T05:22:08.941Z,12.17
2023-04-19T05:24:36.501Z,13.63
2023-04-19T05:27:03.552Z,11.60
2023-04-19T05:29:31.528Z,13.20
2023-04-19T05:31:59.067Z,12.37
2023-04-19T05:34:25.933Z,12.17
2023-04-19T05:36:52.832Z,12.90
2023-04-19T05:39:19.801Z,12.60
2023-04-19T05:41:46.655Z,12.00
2023-04-19T05:44:13.705Z,13.20
2023-04-19T05:46:40.872Z,13.33
2023-04-19T05:49:07.765Z,13.27
2023-04-19T05:51:34.765Z,12.00
2023-04-19T05:54:01.915Z,11.93
2023-04-19T05:56:29.805Z,13.60
2023-04-19T05:58:56.770Z,11.50
2023-04-19T06:01:24.323Z,10.73
2023-04-19T06:03:53.542Z,10.90
2023-04-19T06:06:23.874Z,11.43
2023-04-19T06:08:53.296Z,11.90
2023-04-19T06:11:28.845Z,10.70
2023-04-19T06:14:02.153Z,12.77
2023-04-19T06:16:29.055Z,12.20
2023-04-19T06:18:56.549Z,12.27
2023-04-19T06:21:23.581Z,12.90
2023-04-19T06:23:50.492Z,11.73
2023-04-19T06:26:17.464Z,12.00
2023-04-19T06:28:44.375Z,11.83
2023-04-19T06:31:12.169Z,12.57
2023-04-19T06:33:39.114Z,12.27
2023-04-19T06:36:06.622Z,11.83
2023-04-19T06:38:33.548Z,12.20
2023-04-19T06:41:00.645Z,12.13
2023-04-19T06:43:27.509Z,11.40
2023-04-19T06:46:06.721Z,12.87
2023-04-19T06:48:35.304Z,11.20
2023-04-19T06:51:02.620Z,12.13
2023-04-19T06:53:29.556Z,12.83
2023-04-19T06:56:02.226Z,12.93
2023-04-19T06:58:30.104Z,11.97
2023-04-19T07:00:57.460Z,11.60
2023-04-19T07:03:24.663Z,12.73
2023-04-19T07:05:56.200Z,12.27
2023-04-19T07:08:32.184Z,12.40
2023-04-19T07:11:06.019Z,13.93
2023-04-19T07:13:32.944Z,12.70
2023-04-19T07:16:00.031Z,11.00
2023-04-19T07:18:27.011Z,12.63
2023-04-19T07:20:54.157Z,11.63
2023-04-19T07:23:21.111Z,12.93
2023-04-19T07:25:48.089Z,13.23
2023-04-19T07:28:15.845Z,13.27
2023-04-19T07:30:45.908Z,12.77
2023-04-19T07:33:13.034Z,13.30
2023-04-19T07:35:40.554Z,13.00
2023-04-19T07:38:07.677Z,12.77
2023-04-19T07:40:34.535Z,11.60
2023-04-19T07:43:01.508Z,13.20
2023-04-19T07:45:30.992Z,14.07
2023-04-19T07:47:58.350Z,13.67
2023-04-19T07:50:26.987Z,13.97
2023-04-19T07:52:54.152Z,13.50
2023-04-19T07:55:21.326Z,14.30
2023-04-19T07:57:49.328Z,13.40
2023-04-19T08:00:18.728Z,13.67
2023-04-19T08:04:01.087Z,14.23
2023-04-19T08:06:29.600Z,13.53
2023-04-19T08:08:56.714Z,13.90
2023-04-19T08:11:24.960Z,13.23
2023-04-19T08:14:04.453Z,12.93
2023-04-19T08:19:06.345Z,13.00
2023-04-19T08:21:40.580Z,13.43
2023-04-19T08:24:08.883Z,14.50
2023-04-19T08:26:35.850Z,14.27
2023-04-19T08:29:02.758Z,14.50
2023-04-19T08:31:29.674Z,14.53
2023-04-19T08:33:58.376Z,15.73
2023-04-19T08:36:37.116Z,15.50
2023-04-19T08:39:12.311Z,14.60
2023-04-19T08:41:48.149Z,14.77
2023-04-19T08:44:32.521Z,16.17
2023-04-19T08:47:03.836Z,15.60
2023-04-19T08:49:35.726Z,17.30
2023-04-19T08:52:03.513Z,16.30
2023-04-19T08:54:30.474Z,14.83
2023-04-19T08:57:03.159Z,15.40
2023-04-19T08:59:33.037Z,15.50
2023-04-19T09:02:03.716Z,16.13
2023-04-19T09:04:37.008Z,16.03
2023-04-19T09:07:04.940Z,17.33
2023-04-19T09:12:02.782Z,17.60
2023-04-19T09:14:30.514Z,16.50
2023-04-19T09:17:17.466Z,17.20
2023-04-19T09:19:50.111Z,16.70
2023-04-19T09:22:18.762Z,17.50
2023-04-19T09:25:22.581Z,17.50
2023-04-19T09:27:36.330Z,17.33
2023-04-19T09:30:06.167Z,16.77
2023-04-19T09:32:49.599Z,18.33
2023-04-19T09:35:16.828Z,16.70
2023-04-19T09:38:05.840Z,17.53
2023-04-19T09:40:34.258Z,17.07
2023-04-19T09:43:18.022Z,17.97
2023-04-19T09:45:50.889Z,19.90
2023-04-19T09:48:18.069Z,18.87
2023-04-19T09:51:05.466Z,17.00
2023-04-19T09:53:35.075Z,19.07
2023-04-19T09:56:04.180Z,15.73
2023-04-19T10:01:13.909Z,17.60
2023-04-19T10:03:46.927Z,20.17
2023-04-19T10:08:53.841Z,18.43
2023-04-19T10:11:33.667Z,19.57
2023-04-19T10:14:05.306Z,17.43
2023-04-19T10:16:34.240Z,18.93
2023-04-19T10:19:11.647Z,18.20
2023-04-19T10:21:41.982Z,17.47
2023-04-19T10:24:12.459Z,17.67
2023-04-19T10:27:13.064Z,16.00
2023-04-19T10:30:00.103Z,16.60
2023-04-19T10:32:38.384Z,18.90
2023-04-19T10:35:33.482Z,17.90
2023-04-19T10:38:16.503Z,16.83
2023-04-19T10:41:00.609Z,14.97
2023-04-19T10:43:34.487Z,16.10
2023-04-19T10:46:25.699Z,15.10
2023-04-19T10:49:07.733Z,14.30
2023-04-19T10:51:43.238Z,15.53
2023-04-19T10:54:31.758Z,14.50
2023-04-19T10:57:11.028Z,14.27
2023-04-19T10:59:44.260Z,13.97
2023-04-19T11:02:23.710Z,12.63
2023-04-19T11:04:50.884Z,12.57
2023-04-19T11:07:20.157Z,12.00
2023-04-19T11:09:49.625Z,9.17
2023-04-19T11:12:20.912Z,10.30
2023-04-19T11:14:59.719Z,8.53
2023-04-19T11:17:32.245Z,7.97
2023-04-19T11:20:06.958Z,8.17
2023-04-19T11:22:40.367Z,7.20
2023-04-19T11:25:19.052Z,7.10
2023-04-19T11:27:50.799Z,7.90
2023-04-19T11:30:22.406Z,6.77
2023-04-19T11:32:54.548Z,7.73
2023-04-19T11:35:28.547Z,6.47
2023-04-19T11:37:59.039Z,5.67
2023-04-19T11:40:26.718Z,7.33
2023-04-19T11:43:00.363Z,5.90
2023-04-19T11:45:39.452Z,5.80
2023-04-19T11:48:15.777Z,5.00
2023-04-19T11:50:45.606Z,5.20
2023-04-19T11:53:24.752Z,4.50
2023-04-19T11:56:05.595Z,5.10
2023-04-19T11:58:49.779Z,4.57
2023-04-19T12:01:21.488Z,5.30
2023-04-19T12:03:53.057Z,4.93
2023-04-19T12:06:25.872Z,5.20
2023-04-19T12:08:55.379Z,4.80
2023-04-19T12:11:27.524Z,5.40
2023-04-19T12:14:18.367Z,4.67
2023-04-19T12:16:46.373Z,4.30
2023-04-19T12:19:20.287Z,5.30
2023-04-19T12:21:48.052Z,4.23
2023-04-19T12:24:18.387Z,4.17
2023-04-19T12:28:14.500Z,3.80
2023-04-19T12:29:46.076Z,4.13
2023-04-19T12:32:16.347Z,4.50
2023-04-19T12:34:43.666Z,3.77
2023-04-19T12:37:10.873Z,3.77
2023-04-19T12:39:37.817Z,3.10
2023-04-19T12:42:06.098Z,3.53
2023-04-19T12:44:33.121Z,3.37
2023-04-19T12:46:59.965Z,2.87
2023-04-19T12:49:27.194Z,3.27
2023-04-19T12:51:55.799Z,2.90
2023-04-19T12:54:24.002Z,2.50
2023-04-19T12:56:50.928Z,2.73
2023-04-19T12:59:18.262Z,2.80
2023-04-19T13:01:45.482Z,3.13
2023-04-19T13:04:12.608Z,2.30
2023-04-19T13:06:40.393Z,1.77
2023-04-19T13:09:14.325Z,2.00
2023-04-19T13:11:42.052Z,2.27
2023-04-19T13:14:08.928Z,2.50
2023-04-19T13:16:35.939Z,2.80
2023-04-19T13:19:02.855Z,2.30
2023-04-19T13:21:29.734Z,2.10
2023-04-19T13:23:59.152Z,2.63
2023-04-19T13:26:26.457Z,2.07
2023-04-19T13:28:53.436Z,2.10
2023-04-19T13:31:20.325Z,2.03
2023-04-19T13:33:47.511Z,2.23
2023-04-19T13:36:14.417Z,2.30
2023-04-19T13:38:41.386Z,2.10
2023-04-19T13:41:08.301Z,1.70
2023-04-19T13:43:35.226Z,2.30
2023-04-19T13:46:02.082Z,2.03
2023-04-19T13:48:29.188Z,1.87
2023-04-19T13:50:58.166Z,1.90
2023-04-19T13:53:28.744Z,2.03
2023-04-19T13:55:57.010Z,1.83
2023-04-19T13:58:24.811Z,2.00
2023-04-19T14:00:52.787Z,1.90
2023-04-19T14:03:21.627Z,2.10
2023-04-19T14:05:48.574Z,2.50
2023-04-19T14:08:15.444Z,2.07
2023-04-19T14:10:42.414Z,2.30
2023-04-19T14:13:09.310Z,2.13
2023-04-19T14:15:36.271Z,2.37
2023-04-19T14:18:03.416Z,2.40
2023-04-19T14:20:30.322Z,2.10
2023-04-19T14:22:58.911Z,2.53
2023-04-19T14:25:26.636Z,2.60
2023-04-19T14:27:53.512Z,2.30
2023-04-19T14:30:20.913Z,2.70
2023-04-19T14:32:47.993Z,2.13
2023-04-19T14:35:14.931Z,2.60
2023-04-19T14:37:41.899Z,2.90
2023-04-19T14:40:10.941Z,4.33
2023-04-19T14:42:38.133Z,2.37
2023-04-19T14:45:06.646Z,2.73
2023-04-19T14:47:34.148Z,3.17
2023-04-19T14:50:01.096Z,2.33
2023-04-19T14:52:29.223Z,2.73
2023-04-19T14:54:57.564Z,2.80
2023-04-19T14:57:25.643Z,2.43
2023-04-19T14:59:57.957Z,2.30
2023-04-19T15:02:25.771Z,2.47
2023-04-19T15:04:54.032Z,2.60
2023-04-19T15:07:21.716Z,2.80
2023-04-19T15:09:48.812Z,2.77
2023-04-19T15:12:15.745Z,2.70
2023-04-19T15:14:42.733Z,2.80
2023-04-19T15:17:09.840Z,2.40
2023-04-19T15:19:38.428Z,3.13
2023-04-19T15:22:08.551Z,2.70
2023-04-19T15:24:35.793Z,3.00
2023-04-19T15:27:02.813Z,2.83
2023-04-19T15:29:30.130Z,3.00
2023-04-19T15:31:57.345Z,2.80
2023-04-19T15:34:25.282Z,2.93
2023-04-19T15:36:52.213Z,2.33
2023-04-19T15:39:19.077Z,2.23
2023-04-19T15:41:47.826Z,2.30
2023-04-19T15:44:14.684Z,2.40
2023-04-19T15:46:43.265Z,2.23
2023-04-19T15:49:10.219Z,2.57
2023-04-19T15:51:38.181Z,2.53
2023-04-19T15:54:06.615Z,2.00
2023-04-19T15:56:33.534Z,2.77
2023-04-19T15:59:00.562Z,2.30
2023-04-19T16:01:27.620Z,2.27
2023-04-19T16:03:54.870Z,2.27
2023-04-19T16:06:23.074Z,2.60
2023-04-19T16:08:50.931Z,2.03
2023-04-19T16:11:17.859Z,3.20
2023-04-19T16:13:44.742Z,1.77
2023-04-19T16:16:11.676Z,2.40
2023-04-19T16:18:38.569Z,2.37
2023-04-19T16:21:05.881Z,2.60
2023-04-19T16:23:32.780Z,2.93
2023-04-19T16:25:59.729Z,2.40
2023-04-19T16:28:26.673Z,2.57
2023-04-19T16:30:53.594Z,2.57
2023-04-19T16:33:20.828Z,2.00
2023-04-19T16:35:47.762Z,2.50
2023-04-19T16:38:14.691Z,2.03
2023-04-19T16:40:41.604Z,2.53
2023-04-19T16:43:08.549Z,2.17
2023-04-19T16:45:35.627Z,2.70
2023-04-19T16:48:02.601Z,2.37
2023-04-19T16:50:29.708Z,2.10
2023-04-19T16:52:56.650Z,2.50
2023-04-19T16:55:23.591Z,2.20
2023-04-19T16:57:51.003Z,2.47
2023-04-19T17:00:18.428Z,2.00
2023-04-19T17:02:45.577Z,2.43
2023-04-19T17:05:13.770Z,2.43
2023-04-19T17:07:40.678Z,2.20
2023-04-19T17:10:08.702Z,2.73
2023-04-19T17:12:35.685Z,2.40
2023-04-19T17:15:02.888Z,2.23
2023-04-19T17:17:29.797Z,2.43
2023-04-19T17:19:57.507Z,3.00
2023-04-19T17:22:24.505Z,2.87
2023-04-19T17:24:51.481Z,2.50
2023-04-19T17:27:18.398Z,2.80
2023-04-19T17:29:45.635Z,2.70
2023-04-19T17:32:12.613Z,2.87
2023-04-19T17:34:39.481Z,2.30
2023-04-19T17:37:06.401Z,2.80
2023-04-19T17:39:33.381Z,3.30
2023-04-19T17:42:00.317Z,2.70
2023-04-19T17:44:27.190Z,2.87
2023-04-19T17:46:54.260Z,3.27
2023-04-19T17:49:21.776Z,2.90
2023-04-19T17:51:49.015Z,3.40
2023-04-19T17:54:16.225Z,3.70
2023-04-19T17:56:43.249Z,2.83
2023-04-19T17:59:10.136Z,2.90
2023-04-19T18:01:37.951Z,3.60
2023-04-19T18:04:05.570Z,3.57
2023-04-19T18:06:32.863Z,2.50
2023-04-19T18:09:00.437Z,3.00
2023-04-19T18:11:28.638Z,2.60
2023-04-19T18:13:56.201Z,2.87
2023-04-19T18:16:23.384Z,2.80
2023-04-19T18:18:50.629Z,3.20
2023-04-19T18:21:18.592Z,3.23
2023-04-19T18:23:45.809Z,4.80
2023-04-19T18:26:12.826Z,3.07
2023-04-19T18:28:40.353Z,3.93
2023-04-19T18:31:09.218Z,3.03
2023-04-19T18:33:36.441Z,3.10
2023-04-19T18:36:05.324Z,3.20
2023-04-19T18:38:32.381Z,3.40
2023-04-19T18:40:59.456Z,3.47
2023-04-19T18:43:28.657Z,2.80
2023-04-19T18:45:56.716Z,3.03
2023-04-19T18:48:28.406Z,3.70
2023-04-19T18:50:57.134Z,3.43
2023-04-19T18:53:31.462Z,3.90
2023-04-19T18:55:58.611Z,3.50
2023-04-19T18:58:29.492Z,4.20
2023-04-19T19:00:58.148Z,3.53
2023-04-19T19:05:57.773Z,4.80
2023-04-19T19:08:25.166Z,3.80
2023-04-19T19:13:21.982Z,4.10
2023-04-19T19:15:48.992Z,3.50
2023-04-19T19:18:16.064Z,3.93
2023-04-19T19:20:43.032Z,2.97
2023-04-19T19:23:10.023Z,3.50
2023-04-19T19:25:36.951Z,3.20
2023-04-19T19:28:09.228Z,3.70
2023-04-19T19:30:39.493Z,3.70
2023-04-19T19:33:06.590Z,4.17
2023-04-19T19:35:33.626Z,3.50
2023-04-19T19:38:00.578Z,3.67
2023-04-19T19:40:31.081Z,3.83
2023-04-19T19:43:00.993Z,3.77
2023-04-19T19:45:30.177Z,5.00
2023-04-19T19:48:01.545Z,4.50
2023-04-19T19:52:59.740Z,3.60
2023-04-19T19:55:26.847Z,4.17
2023-04-19T20:00:44.033Z,3.87
2023-04-19T20:03:12.535Z,3.53
2023-04-19T20:05:39.811Z,4.30
2023-04-19T20:08:12.066Z,4.40
2023-04-19T20:10:41.923Z,4.07
2023-04-19T20:13:09.217Z,3.60
2023-04-19T20:15:38.223Z,4.00
2023-04-19T20:18:07.972Z,4.03
2023-04-19T20:20:36.644Z,4.77
2023-04-19T20:23:03.668Z,4.20
2023-04-19T20:25:32.381Z,4.10
2023-04-19T20:28:01.159Z,3.70
2023-04-19T20:30:28.260Z,4.03
2023-04-19T20:32:55.258Z,4.00
2023-04-19T20:35:22.213Z,4.10
2023-04-19T20:37:50.714Z,3.87
2023-04-19T20:40:17.698Z,4.10
2023-04-19T20:42:44.878Z,5.30
2023-04-19T20:45:12.780Z,4.13
2023-04-19T20:47:41.017Z,4.47
2023-04-19T20:50:09.726Z,5.20
2023-04-19T20:52:36.627Z,4.47
2023-04-19T20:55:04.739Z,4.83
2023-04-19T20:57:31.651Z,4.45
2023-04-19T20:59:59.377Z,5.00
2023-04-19T21:02:27.821Z,4.37
2023-04-19T21:04:54.811Z,5.50
2023-04-19T21:07:21.705Z,4.67
2023-04-19T21:09:48.584Z,4.20
2023-04-19T21:12:15.912Z,4.53
2023-04-19T21:14:45.229Z,5.40
2023-04-19T21:17:13.620Z,5.80
2023-04-19T21:19:40.463Z,4.90
2023-04-19T21:22:07.339Z,4.80
2023-04-19T21:24:34.248Z,5.07
2023-04-19T21:27:01.386Z,5.40
2023-04-19T21:29:28.266Z,4.33
2023-04-19T21:31:55.304Z,6.82
2023-04-19T21:34:22.836Z,5.27
2023-04-19T21:36:49.689Z,4.22
2023-04-19T21:39:16.789Z,5.30
2023-04-19T21:41:43.802Z,5.10
2023-04-19T21:44:10.745Z,6.13
2023-04-19T21:46:37.747Z,4.20
2023-04-19T21:49:04.656Z,3.30
2023-04-19T21:51:31.906Z,5.28
2023-04-19T21:53:58.755Z,3.75
2023-04-19T21:56:25.803Z,3.70
2023-04-19T21:58:52.711Z,4.65
2023-04-19T22:01:19.600Z,4.82
2023-04-19T22:03:47.090Z,4.32
2023-04-19T22:06:16.907Z,3.80
2023-04-19T22:08:43.873Z,4.65
2023-04-19T22:11:11.774Z,4.20
2023-04-19T22:13:38.691Z,4.20
2023-04-19T22:16:06.232Z,4.38
2023-04-19T22:18:35.589Z,3.88
2023-04-19T22:21:02.683Z,4.50
2023-04-19T22:23:29.698Z,4.47
2023-04-19T22:25:56.656Z,4.30
2023-04-19T22:28:23.501Z,4.25
2023-04-19T22:30:51.552Z,4.20
2023-04-19T22:33:19.342Z,4.15
2023-04-19T22:35:46.424Z,4.57
2023-04-19T22:38:13.565Z,4.95
2023-04-19T22:40:40.768Z,4.78
2023-04-19T22:43:07.681Z,4.90
2023-04-19T22:45:34.655Z,4.63
2023-04-19T22:48:03.094Z,4.80
2023-04-19T22:50:30.044Z,5.10
2023-04-19T22:52:56.964Z,5.22
2023-04-19T22:55:24.236Z,4.90
2023-04-19T22:57:51.147Z,4.85
2023-04-19T23:00:18.667Z,4.72
2023-04-19T23:02:45.744Z,4.90
2023-04-19T23:05:13.080Z,4.35
2023-04-19T23:07:41.718Z,5.10
2023-04-19T23:10:10.174Z,5.25
2023-04-19T23:12:38.710Z,5.50
2023-04-19T23:15:07.742Z,5.15
2023-04-19T23:17:34.707Z,5.50
2023-04-19T23:20:01.739Z,5.20
2023-04-19T23:22:28.576Z,6.35
2023-04-19T23:24:55.398Z,5.13
2023-04-19T23:27:22.306Z,5.93
2023-04-19T23:29:49.190Z,5.70
2023-04-19T23:32:17.978Z,4.25
2023-04-19T23:34:45.214Z,4.88
2023-04-19T23:37:13.689Z,4.90
2023-04-19T23:39:40.572Z,4.50
2023-04-19T23:42:07.685Z,5.35
2023-04-19T23:44:34.952Z,4.50
2023-04-19T23:47:04.801Z,4.95
2023-04-19T23:49:32.254Z,4.20
2023-04-19T23:51:59.149Z,3.97
2023-04-19T23:54:26.297Z,4.13
2023-04-19T23:56:54.229Z,4.22
2023-04-19T23:59:21.389Z,4.53
